• Join FlightAware (Why Join?)
  • Login
  • US Flag 
12:02PM EST


 

Airport Tracker/Info


-or-


 

Live Flight TrackerFlight Track Log ✈ UAL33 ✈ 12-Feb-2014 ✈ RJAA / NRT - KLAX

Flight Track Log - Related Links

Times and Time Zones

All times are in EST time to prevent confusion due to time zone crossing. See the UAL33 flight status page for this flight to view local times or setup timezone preferences in your user account.

Time Position Orientation Groundspeed Altitude Reporting Facility
EST Latitude Longitude Course Direction KTS MPH feet Rate Location/Type
04:50AM 35.8987 140.8616 73° East  Level FlightAware Approximate
04:51AM 35.9445 141.0227 76° East  Level FlightAware Approximate
04:52AM 35.9897 141.1845 70° East  Level FlightAware Approximate
04:53AM 36.0365 141.3459 73° East  Level FlightAware Approximate
04:54AM 36.0806 141.5083 68° East  Level FlightAware Approximate
04:55AM 36.1335 141.6669 68° East  Level FlightAware Approximate
04:56AM 36.1827 141.8274 70° East  Level FlightAware Approximate
04:57AM 36.2301 141.9889 70° East  Level FlightAware Approximate
04:58AM 36.2747 142.1517 71° East  Level FlightAware Approximate
04:59AM 36.3163 142.3154 67° East  Level FlightAware Approximate
05:00AM 36.3662 142.4758 71° East  Level FlightAware Approximate
05:01AM 36.4080 142.6399 76° East  Level FlightAware Approximate
05:02AM 36.4440 142.8062 71° East  Level FlightAware Approximate
05:03AM 36.4878 142.9698 72° East  Level FlightAware Approximate
05:04AM 36.5314 143.1335 72° East  Level FlightAware Approximate
05:05AM 36.5759 143.2969 69° East  Level FlightAware Approximate
05:06AM 36.6252 143.4584 69° East  Level FlightAware Approximate
05:07AM 36.6743 143.6200 69° East  Level FlightAware Approximate
05:08AM 36.7184 143.7838 72° East  Level FlightAware Approximate
05:09AM 36.7613 143.9484 72° East  Level FlightAware Approximate
05:10AM 36.8037 144.1132 72° East  Level FlightAware Approximate
05:11AM 36.8456 144.2783 72° East  Level FlightAware Approximate
05:12AM 36.8873 144.4435 72° East  Level FlightAware Approximate
05:13AM 36.9288 144.6090 73° East  Level FlightAware Approximate
05:14AM 36.9700 144.7746 73° East  Level FlightAware Approximate
05:15AM 37.0110 144.9404 73° East  Level FlightAware Approximate
05:16AM 37.0518 145.1064 73° East  Level FlightAware Approximate
05:17AM 37.0923 145.2726 73° East  Level FlightAware Approximate
05:18AM 37.1326 145.4389 73° East  Level FlightAware Approximate
05:19AM 37.1738 145.6102 73° East  Level FlightAware Approximate
05:20AM 37.2637 145.7433 43° Northeast  Level FlightAware Approximate
05:21AM 37.3683 145.8651 43° Northeast  Level FlightAware Approximate
05:22AM 37.4728 145.9872 43° Northeast  Level FlightAware Approximate
05:23AM 37.5771 146.1097 43° Northeast  Level FlightAware Approximate
05:24AM 37.6813 146.2326 43° Northeast  Level FlightAware Approximate
05:25AM 37.7854 146.3557 43° Northeast  Level FlightAware Approximate
05:26AM 37.8893 146.4793 43° Northeast  Level FlightAware Approximate
05:27AM 37.9931 146.6031 43° Northeast  Level FlightAware Approximate
05:28AM 38.0956 146.7259 43° Northeast  Level FlightAware Approximate
05:29AM 38.1979 146.8489 43° Northeast  Level FlightAware Approximate
05:30AM 38.3000 146.9723 43° Northeast  Level FlightAware Approximate
05:31AM 38.4021 147.0961 44° Northeast  Level FlightAware Approximate
05:32AM 38.5040 147.2202 44° Northeast  Level FlightAware Approximate
05:33AM 38.6058 147.3446 44° Northeast  Level FlightAware Approximate
05:34AM 38.7074 147.4694 44° Northeast  Level FlightAware Approximate
05:35AM 38.8089 147.5946 44° Northeast  Level FlightAware Approximate
05:36AM 38.9103 147.7201 44° Northeast  Level FlightAware Approximate
05:37AM 39.0115 147.8459 44° Northeast  Level FlightAware Approximate
05:38AM 39.1127 147.9722 44° Northeast  Level FlightAware Approximate
05:39AM 39.2136 148.0988 44° Northeast  Level FlightAware Approximate
05:40AM 39.3144 148.2257 44° Northeast  Level FlightAware Approximate
05:41AM 39.4151 148.3530 44° Northeast  Level FlightAware Approximate
05:42AM 39.5157 148.4807 44° Northeast  Level FlightAware Approximate
05:43AM 39.6161 148.6088 44° Northeast  Level FlightAware Approximate
05:44AM 39.7164 148.7372 45° Northeast  Level FlightAware Approximate
05:45AM 39.8165 148.8660 45° Northeast  Level FlightAware Approximate
05:46AM 39.9165 148.9952 45° Northeast  Level FlightAware Approximate
05:47AM 40.0164 149.1248 45° Northeast  Level FlightAware Approximate
05:48AM 40.1161 149.2547 45° Northeast  Level FlightAware Approximate
05:49AM 40.2156 149.3851 45° Northeast  Level FlightAware Approximate
05:50AM 40.3150 149.5158 45° Northeast  Level FlightAware Approximate
05:51AM 40.4143 149.6469 45° Northeast  Level FlightAware Approximate
05:52AM 40.5135 149.7782 45° Northeast  Level FlightAware Approximate
05:53AM 40.6125 149.9100 45° Northeast  Level FlightAware Approximate
05:54AM 40.7114 150.0421 45° Northeast  Level FlightAware Approximate
05:55AM 40.8101 150.1747 45° Northeast  Level FlightAware Approximate
05:56AM 40.9087 150.3076 46° Northeast  Level FlightAware Approximate
05:57AM 41.0071 150.4410 46° Northeast  Level FlightAware Approximate
05:58AM 41.1054 150.5748 46° Northeast  Level FlightAware Approximate
05:59AM 41.2037 150.7091 46° Northeast  Level FlightAware Approximate
06:00AM 41.3018 150.8439 46° Northeast  Level FlightAware Approximate
06:01AM 41.3998 150.9791 46° Northeast  Level FlightAware Approximate
06:02AM 41.4977 151.1147 46° Northeast  Level FlightAware Approximate
06:03AM 41.5953 151.2507 46° Northeast  Level FlightAware Approximate
06:04AM 41.6928 151.3871 46° Northeast  Level FlightAware Approximate
06:05AM 41.7901 151.5240 46° Northeast  Level FlightAware Approximate
06:06AM 41.8873 151.6612 46° Northeast  Level FlightAware Approximate
06:07AM 41.9843 151.7989 47° Northeast  Level FlightAware Approximate
06:08AM 42.0812 151.9370 47° Northeast  Level FlightAware Approximate
06:09AM 42.1779 152.0755 47° Northeast  Level FlightAware Approximate
06:10AM 42.2744 152.2144 47° Northeast  Level FlightAware Approximate
06:11AM 42.3707 152.3538 47° Northeast  Level FlightAware Approximate
06:12AM 42.4669 152.4936 47° Northeast  Level FlightAware Approximate
06:13AM 42.5629 152.6338 47° Northeast  Level FlightAware Approximate
06:14AM 42.6587 152.7744 47° Northeast  Level FlightAware Approximate
06:15AM 42.7544 152.9155 47° Northeast  Level FlightAware Approximate
06:16AM 42.8499 153.0570 47° Northeast  Level FlightAware Approximate
06:17AM 42.9452 153.1990 47° Northeast  Level FlightAware Approximate
06:18AM 43.0403 153.3414 48° Northeast  Level FlightAware Approximate
06:19AM 43.1353 153.4842 48° Northeast  Level FlightAware Approximate
06:20AM 43.2301 153.6275 48° Northeast  Level FlightAware Approximate
06:21AM 43.3247 153.7712 48° Northeast  Level FlightAware Approximate
06:22AM 43.4191 153.9154 48° Northeast  Level FlightAware Approximate
06:23AM 43.5133 154.0600 48° Northeast  Level FlightAware Approximate
06:24AM 43.6074 154.2051 48° Northeast  Level FlightAware Approximate
06:25AM 43.7012 154.3506 48° Northeast  Level FlightAware Approximate
06:26AM 43.7949 154.4966 48° Northeast  Level FlightAware Approximate
06:27AM 43.8884 154.6431 48° Northeast  Level FlightAware Approximate
06:28AM 43.9818 154.7900 49° Northeast  Level FlightAware Approximate
06:29AM 44.0749 154.9373 49° Northeast  Level FlightAware Approximate
06:30AM 44.1678 155.0852 50° Northeast  Level FlightAware Approximate
06:31AM 44.2579 155.2366 50° Northeast  Level FlightAware Approximate
06:32AM 44.3479 155.3884 50° Northeast  Level FlightAware Approximate
06:33AM 44.4376 155.5408 50° Northeast  Level FlightAware Approximate
06:34AM 44.5271 155.6935 51° Northeast  Level FlightAware Approximate
06:35AM 44.6165 155.8468 51° Northeast  Level FlightAware Approximate
06:36AM 44.7059 156.0001 50° Northeast  Level FlightAware Approximate
06:37AM 44.7957 156.1534 50° Northeast  Level FlightAware Approximate
06:38AM 44.8852 156.3071 51° Northeast  Level FlightAware Approximate
06:39AM 44.9745 156.4613 51° Northeast  Level FlightAware Approximate
06:40AM 45.0636 156.6160 51° Northeast  Level FlightAware Approximate
06:41AM 45.1525 156.7712 51° Northeast  Level FlightAware Approximate
06:42AM 45.2412 156.9269 51° Northeast  Level FlightAware Approximate
06:43AM 45.3297 157.0830 51° Northeast  Level FlightAware Approximate
06:44AM 45.4180 157.2397 51° Northeast  Level FlightAware Approximate
06:45AM 45.5060 157.3968 51° Northeast  Level FlightAware Approximate
06:46AM 45.5939 157.5544 51° Northeast  Level FlightAware Approximate
06:47AM 45.6815 157.7125 52° Northeast  Level FlightAware Approximate
06:48AM 45.7689 157.8711 52° Northeast  Level FlightAware Approximate
06:49AM 45.8572 158.0322 52° Northeast  Level FlightAware Approximate
06:50AM 45.9452 158.1938 52° Northeast  Level FlightAware Approximate
06:51AM 46.0330 158.3559 52° Northeast  Level FlightAware Approximate
06:52AM 46.1206 158.5185 52° Northeast  Level FlightAware Approximate
06:53AM 46.2079 158.6817 52° Northeast  Level FlightAware Approximate
06:54AM 46.2950 158.8453 52° Northeast  Level FlightAware Approximate
06:55AM 46.3819 159.0095 52° Northeast  Level FlightAware Approximate
06:56AM 46.4686 159.1742 53° Northeast  Level FlightAware Approximate
06:57AM 46.5550 159.3394 53° Northeast  Level FlightAware Approximate
06:58AM 46.6411 159.5052 53° Northeast  Level FlightAware Approximate
06:59AM 46.7271 159.6714 53° Northeast  Level FlightAware Approximate
07:00AM 46.8127 159.8383 53° Northeast  Level FlightAware Approximate
07:01AM 46.8982 160.0056 53° Northeast  Level FlightAware Approximate
07:02AM 46.9834 160.1735 53° Northeast  Level FlightAware Approximate
07:03AM 47.0683 160.3419 53° Northeast  Level FlightAware Approximate
07:04AM 47.1530 160.5108 54° Northeast  Level FlightAware Approximate
07:05AM 47.2375 160.6803 54° Northeast  Level FlightAware Approximate
07:06AM 47.3217 160.8503 54° Northeast  Level FlightAware Approximate
07:07AM 47.4056 161.0209 54° Northeast  Level FlightAware Approximate
07:08AM 47.4893 161.1920 54° Northeast  Level FlightAware Approximate
07:09AM 47.5725 161.3639 55° Northeast  Level FlightAware Approximate
07:10AM 47.6548 161.5370 55° Northeast  Level FlightAware Approximate
07:11AM 47.7368 161.7108 55° Northeast  Level FlightAware Approximate
07:11AM 47.5500 161.3333 55° Northeast 543 625 37,000  Level Anchorage Center
07:15AM 47.9833 162.2500 55° Northeast 546 628 37,000  Level Anchorage Center
07:25AM 48.7833 164.0333 57° Northeast 538 619 37,000  Level Anchorage Center
07:35AM 49.5500 165.8667 58° Northeast 524 603 37,000  Level Anchorage Center
07:36AM 49.7000 166.2167 58° Northeast 526 605 37,000  Level Anchorage Center
07:44AM 50.2833 167.7167 59° Northeast 521 600 37,000  Level Anchorage Center
07:54AM 50.9667 169.5833 61° Northeast 514 592 37,000  Level Anchorage Center
08:02AM 51.5000 171.1500 82° East 541 623 37,000  Level Anchorage Center
08:03AM 51.5500 171.5667 82° East 544 626 37,000  Level Anchorage Center
08:13AM 51.7167 173.8833 83° East 541 623 37,000  Level Anchorage Center
08:17AM 51.7833 174.8833 85° East 544 626 37,000  Level Anchorage Center
08:23AM 51.8500 176.2000 86° East 545 627 37,000  Level Anchorage Center
08:26AM 51.8833 177.1000 91° East 527 606 37,000  Level Anchorage Center
08:28AM 51.8833 177.5167 92° East 526 605 37,000  Level Anchorage Center
08:32AM 51.8667 178.5500 92° East 523 602 37,000  Level Anchorage Center
08:42AM 51.7833 -179.1667 94° East 525 604 37,000  Level Anchorage Center
08:51AM 51.6500 -176.9167 96° East 524 603 37,000  Level Anchorage Center
09:01AM 51.5000 -174.7333 98° East 511 588 37,000  Level Anchorage Center
09:11AM 51.3000 -172.6167 99° East 503 579 37,000  Level Anchorage Center
09:23AM 51.0000 -170.0000 103° East 504 580 37,000  Level Oakland Oceanic (ODAPS)
09:30AM 50.7500 -168.4333 105° East 508 585 37,000 60 Level Oakland Oceanic (ODAPS)
09:44AM 50.2333 -165.5000 107° East 500 575 39,000 60 Climbing Oakland Oceanic (ODAPS)
09:58AM 49.6167 -162.6167 109° East 516 594 39,000  Level Oakland Oceanic (ODAPS)
10:11AM 49.0000 -160.0000 103° East 510 587 39,000  Level Oakland Oceanic (ODAPS)
10:12AM 48.9667 -159.7833 103° East 513 590 39,000  Level Oakland Oceanic (ODAPS)
10:25AM 48.5000 -156.9333 105° East 513 590 39,000  Level Oakland Oceanic (ODAPS)
10:39AM 47.9500 -154.1000 107° East 518 596 39,000  Level Oakland Oceanic (ODAPS)
10:53AM 47.3167 -151.3000 109° East 523 602 39,000  Level Oakland Oceanic (ODAPS)
11:00AM 47.0000 -150.0000 102° East 545 627 39,000  Level Oakland Oceanic (ODAPS)
11:07AM 46.7500 -148.4500 104° East 547 629 39,000  Level Oakland Oceanic (ODAPS)
11:21AM 46.2333 -145.5333 106° East 550 633 39,000  Level Oakland Oceanic (ODAPS)
11:35AM 45.6333 -142.6500 108° East 549 632 39,000  Level Oakland Oceanic (ODAPS)
11:48AM 45.0000 -140.0000 109° East 559 643 39,000  Level Oakland Oceanic (ODAPS)
11:49AM 44.9500 -139.8167 109° East 562 647 39,000  Level Oakland Oceanic (ODAPS)
12:02PM 44.2167 -136.9833 111° Southeast 562 647 39,000  Level Oakland Oceanic (ODAPS)
12:16PM 43.4000 -134.2000 113° Southeast 565 650 39,000  Level Oakland Oceanic (ODAPS)
12:30PM 42.5333 -131.5000 115° Southeast 563 648 39,000  Level Oakland Oceanic (ODAPS)
12:38PM 42.0000 -130.0000 120° Southeast 553 636 39,000  Level Oakland Oceanic (ODAPS)
12:44PM 41.5333 -128.9333 121° Southeast 540 621 39,000  Level Oakland Oceanic (ODAPS)
12:54PM 40.7594 -127.3156 118° Southeast 533 613 39,000  Level Oakland Center
12:55PM 40.7096 -127.1591 122° Southeast 540 621 39,000  Level FlightAware Transoceanic
12:55PM 40.6811 -127.1522 122° Southeast 531 611 39,000  Level Oakland Center
12:56PM 40.6333 -127.0000 118° Southeast 540 621 39,000 -120 Level FlightAware Transoceanic
12:56PM 40.6042 -126.9861 121° Southeast 532 612 38,900  Descending Oakland Center
12:57PM 40.5640 -126.8266 118° Southeast 540 621 39,000 60 Climbing FlightAware Transoceanic
12:57PM 40.5292 -126.8156 120° Southeast 538 619 39,000  Level Oakland Center
12:58PM 40.4944 -126.6535 118° Southeast 540 621 39,000 -120 Level FlightAware Transoceanic
12:58PM 40.4369 -126.6669 129° Southeast 530 610 38,900  Descending Oakland Center
12:59PM 40.4246 -126.4807 118° Southeast 540 621 39,000 60 Climbing FlightAware Transoceanic
12:59PM 40.3442 -126.5239 130° Southeast 520 598 39,000  Level Oakland Center
01:00PM 40.2325 -126.3514 130° Southeast 518 596 39,000 -60 Level Oakland Center
01:01PM 40.1378 -126.2069 131° Southeast 523 602 38,900  Descending Oakland Center
01:02PM 40.0447 -126.0644 130° Southeast 520 598 39,000  Climbing Oakland Center
01:03PM 39.9497 -125.9200 131° Southeast 524 603 39,000  Level Oakland Center
01:04PM 39.8572 -125.7775 130° Southeast 520 598 39,000 -60 Level Oakland Center
01:05PM 39.7617 -125.6353 131° Southeast 523 602 38,900 -60 Descending Oakland Center
01:06PM 39.6683 -125.4933 130° Southeast 521 600 38,900  Level Oakland Center
01:07PM 39.5742 -125.3533 131° Southeast 520 598 39,000  Climbing Oakland Center
01:08PM 39.4611 -125.1850 131° Southeast 521 600 39,000  Level Oakland Center
01:09PM 39.3733 -125.0556 131° Southeast 521 600 39,000  Level Oakland Center
01:10PM 39.2769 -124.9131 131° Southeast 527 606 39,000 -60 Level Oakland Center
01:11PM 39.1803 -124.7711 131° Southeast 528 608 38,900 -60 Descending Oakland Center
01:12PM 39.0769 -124.6206 131° Southeast 529 609 38,900  Level Oakland Center
01:13PM 38.9667 -124.4600 131° Southeast 529 609 39,000  Climbing Oakland Center
01:14PM 38.8839 -124.3386 131° Southeast 526 605 39,000 -60 Level Oakland Center
01:15PM 38.7731 -124.1808 132° Southeast 524 603 38,900 -540 Descending Oakland Center
01:16PM 38.6756 -124.0394 131° Southeast 530 610 37,900 -960 Descending Oakland Center
01:17PM 38.5767 -123.8992 132° Southeast 532 612 37,000 -540 Descending Oakland Center
01:18PM 38.4778 -123.7603 132° Southeast 530 610 36,900 -60 Descending Oakland Center
01:19PM 38.3800 -123.6208 132° Southeast 528 608 36,900  Level Oakland Center
01:20PM 38.2811 -123.4811 132° Southeast 532 612 36,900  Level Oakland Center
01:21PM 38.1822 -123.3431 132° Southeast 531 611 36,900  Level Oakland Center
01:26PM 37.7048 -122.6826 132° Southeast 534 615 37,000  Climbing FlightAware ADS-B
01:27PM 37.5601 -122.4848 133° Southeast 532 612 37,000  Level FlightAware ADS-B
01:28PM 37.4876 -122.3861 133° Southeast 534 615 37,000  Level FlightAware ADS-B
01:28PM 37.4621 -122.3520 133° Southeast 532 612 37,000  Level FlightAware ADS-B
01:29PM 37.4049 -122.2740 133° Southeast 536 617 37,000  Level FlightAware ADS-B
01:29PM 37.3911 -122.2553 133° Southeast 536 617 37,000  Level FlightAware ADS-B
01:29PM 37.3536 -122.2050 133° Southeast 536 617 37,000  Level FlightAware ADS-B
01:30PM 37.3027 -122.1360 133° Southeast 536 617 37,000  Level FlightAware ADS-B
01:30PM 37.2996 -122.1320 134° Southeast 536 617 37,000  Level FlightAware ADS-B
01:30PM 37.2463 -122.0600 133° Southeast 536 617 37,000  Level FlightAware ADS-B
01:31PM 37.1948 -121.9910 133° Southeast 537 618 37,000  Level FlightAware ADS-B
01:31PM 37.1582 -121.9420 133° Southeast 537 618 37,000  Level FlightAware ADS-B
01:31PM 37.1430 -121.9220 134° Southeast 537 618 37,000  Level FlightAware ADS-B
01:32PM 37.0799 -121.8370 133° Southeast 537 618 37,000  Level FlightAware ADS-B
01:33PM 37.0286 -121.7690 133° Southeast 537 618 37,000  Level FlightAware ADS-B
01:33PM 36.9770 -121.7000 133° Southeast 536 617 37,000  Level FlightAware ADS-B
01:34PM 36.8682 -121.5560 133° Southeast 535 616 37,000  Level FlightAware ADS-B
01:35PM 36.7988 -121.4640 133° Southeast 536 617 37,000  Level FlightAware ADS-B
01:36PM 36.7200 -121.3600 133° Southeast 535 616 37,000  Level FlightAware ADS-B
01:37PM 36.6236 -121.2364 133° Southeast 534 615 37,000  Level Oakland Center
01:38PM 36.5200 -121.1019 134° Southeast 534 615 37,000  Level Oakland Center
01:39PM 36.4181 -120.9692 134° Southeast 535 616 37,000  Level Oakland Center
01:40PM 36.3153 -120.8372 134° Southeast 532 612 37,000 -300 Level Oakland Center
01:41PM 36.2139 -120.7036 133° Southeast 531 611 36,400 -1,020 Descending Oakland Center
01:42PM 36.1106 -120.5725 134° Southeast 530 610 35,000 -720 Descending Oakland Center
01:43PM 36.0075 -120.4369 133° Southeast 538 619 35,000 -60 Level Oakland Center
01:45PM 35.7997 -120.1725 134° Southeast 532 612 34,900  Descending Oakland Center
01:46PM 35.6744 -120.0131 134° Southeast 536 617 35,000  Climbing Oakland Center
01:47PM 35.5572 -119.8992 142° Southeast 531 611 35,000  Level Oakland Center
01:48PM 35.4356 -119.7950 145° Southeast 529 609 35,000 -420 Level Oakland Center
01:49PM 35.3156 -119.6919 145° Southeast 526 605 34,200 -960 Descending Oakland Center
01:50PM 35.1961 -119.5894 145° Southeast 524 603 33,100 -1,740 Descending Oakland Center
01:51PM 35.0781 -119.4883 145° Southeast 519 597 30,700 -2,400 Descending Oakland Center
01:52PM 34.9631 -119.3917 145° Southeast 506 582 28,300 -2,520 Descending Oakland Center
01:53PM 34.8539 -119.2997 145° Southeast 491 565 25,600 -2,220 Descending Oakland Center
01:54PM 34.7492 -119.2114 145° Southeast 475 547 23,800 -2,100 Descending Oakland Center
01:55PM 34.7092 -119.1775 145° Southeast 455 524 22,500 -2,940 Descending Los Angeles Center
01:56PM 34.5794 -119.0686 145° Southeast 446 513 19,300 -2,820 Descending Los Angeles Center
01:57PM 34.4836 -118.9878 145° Southeast 420 483 16,700 -2,400 Descending Los Angeles Center
01:58PM 34.3925 -118.9100 145° Southeast 401 461 14,400 -1,860 Descending Los Angeles Center
01:59PM 34.3144 -118.8661 155° Southeast 388 447 12,900 -1,080 Descending Los Angeles Center
02:00PM 34.1978 -118.8236 163° South 358 412 12,200 -1,080 Descending Los Angeles Center
02:06PM 34.0259 -118.3254 163° South 235 270 5,300 -1,200 Descending FlightAware ADS-B
02:06PM 34.0296 -118.2889 83° East 232 267 4,700 -1,500 Descending FlightAware ADS-B
02:07PM 34.0358 -118.2400 83° East 240 276 3,500 -960 Descending Los Angeles Center
02:08PM 33.9789 -118.2200 164° South 207 238 3,000 -720 Descending Los Angeles Center
02:09PM 33.9642 -118.2814 254° West 199 229 2,100 -900 Descending Los Angeles Center
02:10PM 33.9592 -118.3361 264° West 180 207 1,200 -780 Descending Los Angeles Center
02:11PM 33.9553 -118.3831 264° West 156 180 500 -540 Descending Los Angeles Center
02:12PM 33.9494 -118.4361 262° West 150 173 100 -420 Descending Los Angeles Center